createdAt,value
2018-03-11T00:02:18.843Z,10.40
2018-03-11T00:04:47.208Z,10.40
2018-03-11T00:07:14.770Z,10.40
2018-03-11T00:09:42.628Z,10.40
2018-03-11T00:12:10.989Z,10.40
2018-03-11T00:14:38.689Z,10.40
2018-03-11T00:17:06.662Z,10.40
2018-03-11T00:19:34.658Z,10.40
2018-03-11T00:22:02.550Z,10.40
2018-03-11T00:24:31.065Z,10.40
2018-03-11T00:26:59.432Z,10.40
2018-03-11T00:29:27.038Z,10.40
2018-03-11T00:31:55.615Z,10.30
2018-03-11T00:34:24.129Z,10.30
2018-03-11T00:36:51.709Z,10.30
2018-03-11T00:39:19.390Z,10.30
2018-03-11T00:41:46.992Z,10.30
2018-03-11T00:44:14.567Z,10.30
2018-03-11T00:46:43.681Z,10.30
2018-03-11T00:49:11.381Z,10.30
2018-03-11T00:51:39.001Z,10.30
2018-03-11T00:54:06.572Z,10.30
2018-03-11T00:56:34.141Z,10.30
2018-03-11T00:59:01.761Z,10.30
2018-03-11T01:01:29.332Z,10.30
2018-03-11T01:03:56.928Z,10.20
2018-03-11T01:06:24.508Z,10.20
2018-03-11T01:08:52.113Z,10.20
2018-03-11T01:11:19.733Z,10.30
2018-03-11T01:13:47.327Z,10.20
2018-03-11T01:16:14.884Z,10.30
2018-03-11T01:18:43.248Z,10.30
2018-03-11T01:21:12.956Z,10.30
2018-03-11T01:23:42.831Z,10.20
2018-03-11T01:26:12.421Z,10.30
2018-03-11T01:28:40.002Z,10.20
2018-03-11T01:31:07.572Z,10.20
2018-03-11T01:33:35.185Z,10.20
2018-03-11T01:36:02.774Z,10.20
2018-03-11T01:38:33.066Z,10.20
2018-03-11T01:41:00.630Z,10.20
2018-03-11T01:43:28.234Z,10.20
2018-03-11T01:45:58.284Z,10.20
2018-03-11T01:48:25.860Z,10.20
2018-03-11T01:50:54.253Z,10.20
2018-03-11T01:53:21.872Z,10.20
2018-03-11T01:55:49.475Z,10.20
2018-03-11T01:58:17.073Z,10.20
2018-03-11T02:00:44.670Z,10.10
2018-03-11T02:03:13.045Z,10.10
2018-03-11T02:05:40.626Z,10.10
2018-03-11T02:08:08.994Z,10.10
2018-03-11T02:10:37.326Z,10.10
2018-03-11T02:13:04.926Z,10.10
2018-03-11T02:15:32.533Z,10.10
2018-03-11T02:18:00.108Z,10.10
2018-03-11T02:20:27.717Z,10.00
2018-03-11T02:22:55.317Z,10.00
2018-03-11T02:25:22.886Z,10.00
2018-03-11T02:27:50.484Z,10.00
2018-03-11T02:30:18.054Z,10.10
2018-03-11T02:32:45.778Z,10.00
2018-03-11T02:35:13.347Z,10.00
2018-03-11T02:37:40.951Z,10.00
2018-03-11T02:40:09.314Z,10.00
2018-03-11T02:42:36.878Z,10.00
2018-03-11T02:45:04.489Z,9.90
2018-03-11T02:47:32.045Z,9.90
2018-03-11T02:49:59.645Z,9.90
2018-03-11T02:52:27.204Z,9.90
2018-03-11T02:54:54.805Z,10.00
2018-03-11T02:57:22.365Z,10.00
2018-03-11T02:59:49.962Z,9.90
2018-03-11T03:02:17.540Z,10.00
2018-03-11T03:04:45.150Z,10.00
2018-03-11T03:07:12.714Z,10.00
2018-03-11T03:09:40.270Z,9.90
2018-03-11T03:12:07.874Z,9.90
2018-03-11T03:14:35.440Z,9.90
2018-03-11T03:17:03.053Z,9.90
2018-03-11T03:19:31.418Z,9.80
2018-03-11T03:21:59.791Z,9.80
2018-03-11T03:24:28.128Z,9.70
2018-03-11T03:26:55.694Z,9.70
2018-03-11T03:29:23.286Z,9.60
2018-03-11T03:31:50.904Z,9.60
2018-03-11T03:34:18.502Z,9.50
2018-03-11T03:36:46.058Z,9.50
2018-03-11T03:39:13.661Z,9.50
2018-03-11T03:41:41.223Z,9.50
2018-03-11T03:44:08.793Z,9.40
2018-03-11T03:46:36.420Z,9.40
2018-03-11T03:49:03.983Z,9.40
2018-03-11T03:51:32.344Z,9.30
2018-03-11T03:53:59.941Z,9.30
2018-03-11T03:56:27.562Z,9.30
2018-03-11T03:58:55.128Z,9.20
2018-03-11T04:01:22.721Z,9.20
2018-03-11T04:03:51.037Z,9.20
2018-03-11T04:06:18.593Z,9.20
2018-03-11T04:08:46.212Z,9.20
2018-03-11T04:11:13.805Z,9.10
2018-03-11T04:13:41.357Z,9.10
2018-03-11T04:16:08.962Z,9.00
2018-03-11T04:18:36.558Z,8.80
2018-03-11T04:21:04.934Z,8.50
2018-03-11T04:23:33.264Z,8.40
2018-03-11T04:26:00.820Z,8.40
2018-03-11T04:28:28.409Z,8.40
2018-03-11T04:30:56.004Z,8.50
2018-03-11T04:33:24.346Z,8.60
2018-03-11T04:35:51.955Z,8.60
2018-03-11T04:38:19.564Z,8.60
2018-03-11T04:40:47.114Z,8.50
2018-03-11T04:43:14.710Z,8.50
2018-03-11T04:45:42.309Z,8.50
2018-03-11T04:48:09.864Z,8.40
2018-03-11T04:50:37.525Z,8.30
2018-03-11T04:55:38.071Z,8.20
2018-03-11T04:58:05.668Z,8.20
2018-03-11T05:00:33.237Z,8.20
2018-03-11T05:03:00.832Z,8.30
2018-03-11T05:05:28.397Z,8.30
2018-03-11T05:07:56.766Z,8.50
2018-03-11T05:10:25.091Z,8.50
2018-03-11T05:12:52.669Z,8.50
2018-03-11T05:15:20.265Z,8.60
2018-03-11T05:17:47.825Z,8.60
2018-03-11T05:20:16.197Z,8.60
2018-03-11T05:22:43.801Z,8.60
2018-03-11T05:25:11.398Z,8.60
2018-03-11T05:27:38.965Z,8.70
2018-03-11T05:30:06.570Z,8.70
2018-03-11T05:32:34.169Z,8.70
2018-03-11T05:35:01.780Z,8.70
2018-03-11T05:37:30.103Z,8.70
2018-03-11T05:39:57.659Z,8.70
2018-03-11T05:42:25.257Z,8.60
2018-03-11T05:44:52.878Z,8.50
2018-03-11T05:47:20.433Z,8.30
2018-03-11T05:49:48.036Z,8.20
2018-03-11T05:52:15.592Z,8.10
2018-03-11T05:54:43.199Z,8.00
2018-03-11T05:57:10.760Z,7.90
2018-03-11T05:59:38.322Z,7.90
2018-03-11T06:02:05.907Z,7.90
2018-03-11T06:04:33.467Z,7.90
2018-03-11T06:07:01.072Z,7.90
2018-03-11T06:09:28.638Z,7.90
2018-03-11T06:11:56.373Z,7.90
2018-03-11T06:14:24.701Z,8.00
2018-03-11T06:16:53.084Z,8.00
2018-03-11T06:19:20.652Z,8.00
2018-03-11T06:21:48.217Z,8.00
2018-03-11T06:24:15.827Z,8.00
2018-03-11T06:26:43.430Z,8.00
2018-03-11T06:29:10.988Z,8.00
2018-03-11T06:31:38.590Z,8.00
2018-03-11T06:34:06.161Z,8.10
2018-03-11T06:36:33.759Z,8.10
2018-03-11T06:39:02.128Z,8.10
2018-03-11T06:41:29.701Z,8.10
2018-03-11T06:43:58.070Z,8.10
2018-03-11T06:46:26.437Z,8.20
2018-03-11T06:48:54.001Z,8.10
2018-03-11T06:51:21.568Z,8.20
2018-03-11T06:53:49.173Z,8.20
2018-03-11T06:56:16.758Z,8.30
2018-03-11T06:58:44.330Z,8.30
2018-03-11T07:01:11.932Z,8.30
2018-03-11T07:03:39.533Z,8.30
2018-03-11T07:06:07.100Z,8.30
2018-03-11T07:08:34.755Z,8.30
2018-03-11T07:11:02.311Z,8.30
2018-03-11T07:13:29.912Z,8.30
2018-03-11T07:15:57.518Z,8.30
2018-03-11T07:18:25.090Z,8.40
2018-03-11T07:20:52.653Z,8.40
2018-03-11T07:23:20.255Z,8.40
2018-03-11T07:25:47.828Z,8.40
2018-03-11T07:28:16.189Z,8.40
2018-03-11T07:30:43.790Z,8.40
2018-03-11T07:33:11.356Z,8.40
2018-03-11T07:35:38.969Z,8.40
2018-03-11T07:38:06.566Z,8.50
2018-03-11T07:40:34.129Z,8.50
2018-03-11T07:43:01.717Z,8.50
2018-03-11T07:45:29.308Z,8.50
2018-03-11T07:47:56.878Z,8.50
2018-03-11T07:50:24.473Z,8.50
2018-03-11T07:52:52.068Z,8.50
2018-03-11T07:55:19.657Z,8.60
2018-03-11T07:57:47.225Z,8.60
2018-03-11T08:00:14.827Z,8.60
2018-03-11T08:02:42.404Z,8.70
2018-03-11T08:05:09.974Z,8.70
2018-03-11T08:07:37.576Z,8.70
2018-03-11T08:10:05.143Z,8.80
2018-03-11T08:12:33.519Z,8.90
2018-03-11T08:15:01.085Z,8.90
2018-03-11T08:17:29.454Z,9.00
2018-03-11T08:19:57.778Z,9.00
2018-03-11T08:22:25.372Z,9.00
2018-03-11T08:24:52.934Z,9.00
2018-03-11T08:27:20.531Z,9.10
2018-03-11T08:29:48.853Z,9.20
2018-03-11T08:32:16.458Z,9.20
2018-03-11T08:34:44.056Z,9.30
2018-03-11T08:37:11.666Z,9.50
2018-03-11T08:39:39.240Z,9.60
2018-03-11T08:42:06.846Z,9.80
2018-03-11T08:44:34.410Z,9.90
2018-03-11T08:47:02.034Z,10.00
2018-03-11T08:49:30.413Z,10.30
2018-03-11T08:51:58.747Z,10.40
2018-03-11T08:54:26.320Z,10.40
2018-03-11T08:56:53.929Z,10.50
2018-03-11T08:59:21.570Z,10.60
2018-03-11T09:01:49.141Z,10.80
2018-03-11T09:04:16.718Z,11.00
2018-03-11T09:06:44.335Z,11.10
2018-03-11T09:09:11.902Z,11.20
2018-03-11T09:11:39.474Z,11.30
2018-03-11T09:14:07.118Z,11.40
2018-03-11T09:16:34.706Z,11.40
2018-03-11T09:19:02.276Z,11.50
2018-03-11T09:21:29.886Z,11.50
2018-03-11T09:23:57.489Z,11.60
2018-03-11T09:26:25.476Z,11.70
2018-03-11T09:28:54.387Z,11.80
2018-03-11T09:31:23.444Z,11.80
2018-03-11T09:33:52.934Z,11.90
2018-03-11T09:36:24.602Z,12.00
2018-03-11T09:38:53.410Z,12.10
2018-03-11T09:41:21.766Z,12.20
2018-03-11T09:43:51.199Z,12.20
2018-03-11T09:46:21.421Z,12.40
2018-03-11T09:48:50.267Z,12.40
2018-03-11T09:51:19.422Z,12.60
2018-03-11T09:53:48.014Z,12.70
2018-03-11T09:56:20.731Z,12.80
2018-03-11T09:58:52.561Z,12.80
2018-03-11T10:01:25.746Z,12.80
2018-03-11T10:03:54.190Z,12.90
2018-03-11T10:06:25.146Z,12.90
2018-03-11T10:08:54.342Z,12.90
2018-03-11T10:11:25.881Z,12.90
2018-03-11T10:13:56.159Z,12.90
2018-03-11T10:16:25.257Z,12.80
2018-03-11T10:18:53.789Z,12.80
2018-03-11T10:21:22.289Z,12.80
2018-03-11T10:23:50.714Z,12.90
2018-03-11T10:26:20.071Z,13.00
2018-03-11T10:28:50.901Z,13.20
2018-03-11T10:31:20.162Z,13.20
2018-03-11T10:33:48.365Z,13.20
2018-03-11T10:36:17.437Z,13.10
2018-03-11T10:38:49.136Z,12.90
2018-03-11T10:41:19.145Z,12.90
2018-03-11T10:43:48.442Z,12.70
2018-03-11T10:46:16.964Z,12.60
2018-03-11T10:48:44.621Z,12.40
2018-03-11T10:51:12.341Z,12.30
2018-03-11T10:53:40.748Z,12.20
2018-03-11T10:56:08.344Z,12.20
2018-03-11T10:58:36.020Z,12.10
2018-03-11T11:01:09.326Z,12.00
2018-03-11T11:03:36.912Z,12.00
2018-03-11T11:06:04.713Z,12.00
2018-03-11T11:08:32.320Z,12.00
2018-03-11T11:10:59.940Z,11.90
2018-03-11T11:13:27.530Z,11.90
2018-03-11T11:15:55.124Z,11.90
2018-03-11T11:18:22.764Z,12.00
2018-03-11T11:20:50.933Z,12.10
2018-03-11T11:23:19.201Z,12.20
2018-03-11T11:25:47.316Z,12.30
2018-03-11T11:28:16.850Z,12.30
2018-03-11T11:30:45.552Z,12.30
2018-03-11T11:33:13.821Z,12.30
2018-03-11T11:35:42.263Z,12.30
2018-03-11T11:38:11.900Z,12.20
2018-03-11T11:43:14.656Z,12.10
2018-03-11T11:45:44.443Z,12.10
2018-03-11T11:48:13.419Z,12.10
2018-03-11T11:50:43.148Z,12.10
2018-03-11T11:53:12.568Z,12.20
2018-03-11T11:55:41.118Z,12.30
2018-03-11T11:58:11.708Z,12.30
2018-03-11T12:00:40.131Z,12.30
2018-03-11T12:03:13.535Z,12.20
2018-03-11T12:05:43.086Z,12.20
2018-03-11T12:08:12.346Z,12.10
2018-03-11T12:10:43.434Z,12.10
2018-03-11T12:13:11.889Z,12.10
2018-03-11T12:15:40.130Z,12.10
2018-03-11T12:18:09.454Z,12.10
2018-03-11T12:20:38.790Z,12.10
2018-03-11T12:23:08.094Z,12.20
2018-03-11T12:25:36.439Z,12.20
2018-03-11T12:28:04.990Z,12.20
2018-03-11T12:30:33.420Z,12.20
2018-03-11T12:33:03.442Z,12.20
2018-03-11T12:35:32.143Z,12.20
2018-03-11T12:38:00.492Z,12.20
2018-03-11T12:40:28.144Z,12.30
2018-03-11T12:42:55.787Z,12.40
2018-03-11T12:45:23.444Z,12.50
2018-03-11T12:47:51.082Z,12.50
2018-03-11T12:50:18.753Z,12.60
2018-03-11T12:52:49.507Z,12.60
2018-03-11T12:55:17.117Z,12.60
2018-03-11T12:57:45.521Z,12.60
2018-03-11T13:00:13.091Z,12.60
2018-03-11T13:02:40.724Z,12.70
2018-03-11T13:05:09.099Z,12.90
2018-03-11T13:07:37.467Z,12.90
2018-03-11T13:10:05.909Z,12.90
2018-03-11T13:12:35.590Z,12.90
2018-03-11T13:15:03.194Z,12.90
2018-03-11T13:17:30.852Z,12.90
2018-03-11T13:20:10.284Z,12.90
2018-03-11T13:22:37.865Z,12.90
2018-03-11T13:25:05.493Z,12.90
2018-03-11T13:27:33.088Z,12.90
2018-03-11T13:30:00.761Z,12.90
2018-03-11T13:32:40.072Z,12.90
2018-03-11T13:35:07.685Z,12.90
2018-03-11T13:37:36.028Z,12.70
2018-03-11T13:40:15.499Z,12.60
2018-03-11T13:42:43.854Z,12.50
2018-03-11T13:45:23.342Z,12.50
2018-03-11T13:47:50.974Z,12.50
2018-03-11T13:50:18.541Z,12.60
2018-03-11T13:52:58.698Z,12.50
2018-03-11T13:55:27.029Z,12.50
2018-03-11T13:58:20.376Z,12.50
2018-03-11T14:00:47.933Z,12.60
2018-03-11T14:03:15.533Z,12.60
2018-03-11T14:05:44.754Z,12.60
2018-03-11T14:08:13.195Z,12.60
2018-03-11T14:10:40.793Z,12.60
2018-03-11T14:13:08.364Z,12.60
2018-03-11T14:15:36.752Z,12.60
2018-03-11T14:18:04.349Z,12.60
2018-03-11T14:20:33.700Z,12.60
2018-03-11T14:23:01.275Z,12.60
2018-03-11T14:25:30.020Z,12.60
2018-03-11T14:28:01.462Z,12.60
2018-03-11T14:30:30.523Z,12.40
2018-03-11T14:32:59.805Z,12.40
2018-03-11T14:35:28.521Z,12.40
2018-03-11T14:37:56.807Z,12.30
2018-03-11T14:40:25.889Z,12.20
2018-03-11T14:42:53.522Z,12.20
2018-03-11T14:45:21.881Z,12.20
2018-03-11T14:47:51.544Z,12.20
2018-03-11T14:50:19.188Z,12.20
2018-03-11T14:52:46.755Z,12.20
2018-03-11T14:55:14.401Z,12.30
2018-03-11T14:57:42.010Z,12.30
2018-03-11T15:00:09.668Z,12.40
2018-03-11T15:02:37.326Z,12.50
2018-03-11T15:05:05.004Z,12.60
2018-03-11T15:07:32.609Z,12.60
2018-03-11T15:10:00.425Z,12.70
2018-03-11T15:12:27.986Z,12.80
2018-03-11T15:14:55.563Z,12.90
2018-03-11T15:17:23.248Z,12.90
2018-03-11T15:19:50.859Z,12.90
2018-03-11T15:22:18.429Z,12.90
2018-03-11T15:24:46.039Z,13.00
2018-03-11T15:27:14.366Z,13.00
2018-03-11T15:29:41.990Z,13.00
2018-03-11T15:32:09.618Z,13.00
2018-03-11T15:34:37.359Z,12.90
2018-03-11T15:37:04.981Z,12.90
2018-03-11T15:39:32.637Z,12.90
2018-03-11T15:42:00.286Z,12.80
2018-03-11T15:44:27.922Z,12.80
2018-03-11T15:46:56.262Z,12.70
2018-03-11T15:49:23.884Z,12.70
2018-03-11T15:51:51.542Z,12.70
2018-03-11T15:54:19.131Z,12.70
2018-03-11T15:56:47.518Z,12.70
2018-03-11T15:59:20.209Z,12.70
2018-03-11T16:01:47.947Z,12.70
2018-03-11T16:04:16.397Z,12.60
2018-03-11T16:06:44.001Z,12.60
2018-03-11T16:09:11.617Z,12.60
2018-03-11T16:11:39.999Z,12.50
2018-03-11T16:14:07.599Z,12.50
2018-03-11T16:16:35.246Z,12.40
2018-03-11T16:19:02.878Z,12.40
2018-03-11T16:21:30.488Z,12.30
2018-03-11T16:23:58.054Z,12.30
2018-03-11T16:26:25.669Z,12.20
2018-03-11T16:28:53.265Z,12.20
2018-03-11T16:31:20.869Z,12.20
2018-03-11T16:33:48.432Z,12.10
2018-03-11T16:36:15.997Z,12.10
2018-03-11T16:38:43.594Z,12.10
2018-03-11T16:41:11.230Z,12.00
2018-03-11T16:43:38.841Z,12.00
2018-03-11T16:46:06.444Z,11.90
2018-03-11T16:48:33.980Z,11.80
2018-03-11T16:51:01.577Z,11.70
2018-03-11T16:53:29.183Z,11.70
2018-03-11T16:55:56.777Z,11.60
2018-03-11T16:58:24.441Z,11.50
2018-03-11T17:00:52.051Z,11.40
2018-03-11T17:03:19.650Z,11.30
2018-03-11T17:05:47.212Z,11.30
2018-03-11T17:08:14.820Z,11.40
2018-03-11T17:10:42.417Z,11.40
2018-03-11T17:13:09.983Z,11.30
2018-03-11T17:15:37.655Z,11.20
2018-03-11T17:18:05.226Z,11.00
2018-03-11T17:20:32.824Z,10.90
2018-03-11T17:23:00.452Z,10.70
2018-03-11T17:25:28.007Z,10.50
2018-03-11T17:27:55.645Z,10.40
2018-03-11T17:30:23.239Z,10.30
2018-03-11T17:32:50.856Z,10.10
2018-03-11T17:35:18.446Z,10.00
2018-03-11T17:37:46.041Z,9.80
2018-03-11T17:40:13.602Z,9.70
2018-03-11T17:42:41.167Z,9.60
2018-03-11T17:45:08.765Z,9.50
2018-03-11T17:47:36.336Z,9.40
2018-03-11T17:50:03.953Z,9.30
2018-03-11T17:52:31.553Z,9.10
2018-03-11T17:54:59.155Z,9.00
2018-03-11T17:57:26.749Z,8.90
2018-03-11T17:59:54.318Z,8.80
2018-03-11T18:02:22.686Z,8.60
2018-03-11T18:04:50.290Z,8.60
2018-03-11T18:07:17.862Z,8.50
2018-03-11T18:09:45.473Z,8.40
2018-03-11T18:12:13.041Z,8.30
2018-03-11T18:14:41.388Z,8.20
2018-03-11T18:17:09.014Z,8.20
2018-03-11T18:19:36.583Z,8.20
2018-03-11T18:22:04.146Z,8.20
2018-03-11T18:24:31.751Z,8.20
2018-03-11T18:26:59.333Z,8.20
2018-03-11T18:29:27.705Z,8.20
2018-03-11T18:31:56.067Z,8.10
2018-03-11T18:34:23.642Z,8.10
2018-03-11T18:36:51.262Z,8.00
2018-03-11T18:39:18.829Z,7.90
2018-03-11T18:41:46.506Z,7.80
2018-03-11T18:44:14.070Z,7.80
2018-03-11T18:46:41.637Z,7.70
2018-03-11T18:49:09.249Z,7.60
2018-03-11T18:51:36.867Z,7.50
2018-03-11T18:54:04.434Z,7.50
2018-03-11T18:56:32.836Z,7.40
2018-03-11T18:59:00.397Z,7.40
2018-03-11T19:01:27.958Z,7.40
2018-03-11T19:03:55.561Z,7.40
2018-03-11T19:06:23.175Z,7.40
2018-03-11T19:08:50.738Z,7.30
2018-03-11T19:11:18.501Z,7.30
2018-03-11T19:13:46.935Z,7.20
2018-03-11T19:16:14.523Z,7.20
2018-03-11T19:18:42.122Z,7.10
2018-03-11T19:21:09.707Z,7.00
2018-03-11T19:23:38.072Z,7.00
2018-03-11T19:26:05.684Z,6.90
2018-03-11T19:28:34.022Z,7.00
2018-03-11T19:31:01.626Z,7.00
2018-03-11T19:33:29.213Z,6.90
2018-03-11T19:35:56.787Z,6.90
2018-03-11T19:38:24.429Z,6.80
2018-03-11T19:40:53.293Z,6.70
2018-03-11T19:43:20.918Z,6.60
2018-03-11T19:45:48.478Z,6.60
2018-03-11T19:48:16.035Z,6.60
2018-03-11T19:50:43.629Z,6.50
2018-03-11T19:53:11.191Z,6.50
2018-03-11T19:55:38.815Z,6.40
2018-03-11T19:58:06.374Z,6.40
2018-03-11T20:00:33.993Z,6.40
2018-03-11T20:03:04.724Z,6.40
2018-03-11T20:05:32.441Z,6.30
2018-03-11T20:08:00.221Z,6.30
2018-03-11T20:10:27.818Z,6.30
2018-03-11T20:12:55.424Z,6.30
2018-03-11T20:15:23.030Z,6.30
2018-03-11T20:17:50.634Z,6.40
2018-03-11T20:20:18.222Z,6.40
2018-03-11T20:22:45.813Z,6.30
2018-03-11T20:25:13.452Z,6.30
2018-03-11T20:27:41.056Z,6.30
2018-03-11T20:30:09.381Z,6.20
2018-03-11T20:32:36.994Z,6.20
2018-03-11T20:35:04.593Z,6.20
2018-03-11T20:37:32.205Z,6.10
2018-03-11T20:39:59.771Z,6.00
2018-03-11T20:42:27.434Z,6.10
2018-03-11T20:44:55.016Z,6.00
2018-03-11T20:47:22.632Z,6.00
2018-03-11T20:49:50.189Z,5.90
2018-03-11T20:52:17.754Z,5.80
2018-03-11T20:54:45.349Z,5.70
2018-03-11T20:57:12.914Z,5.70
2018-03-11T20:59:40.513Z,5.60
2018-03-11T21:02:08.130Z,5.60
2018-03-11T21:04:35.754Z,5.60
2018-03-11T21:07:03.330Z,5.50
2018-03-11T21:09:30.932Z,5.50
2018-03-11T21:11:58.508Z,5.40
2018-03-11T21:14:26.078Z,5.40
2018-03-11T21:16:53.687Z,5.40
2018-03-11T21:19:21.254Z,5.40
2018-03-11T21:21:49.659Z,5.30
2018-03-11T21:24:17.283Z,5.30
2018-03-11T21:26:44.981Z,5.30
2018-03-11T21:29:12.579Z,5.30
2018-03-11T21:31:40.185Z,5.30
2018-03-11T21:34:08.550Z,5.20
2018-03-11T21:36:36.882Z,5.30
2018-03-11T21:39:04.495Z,5.30
2018-03-11T21:41:32.204Z,5.30
2018-03-11T21:43:59.808Z,5.20
2018-03-11T21:46:27.370Z,5.20
2018-03-11T21:48:55.009Z,5.20
2018-03-11T21:51:22.582Z,5.20
2018-03-11T21:53:50.195Z,5.10
2018-03-11T21:56:17.767Z,5.10
2018-03-11T21:58:45.402Z,5.10
2018-03-11T22:01:13.025Z,5.10
2018-03-11T22:03:40.812Z,5.00
2018-03-11T22:06:08.459Z,5.00
2018-03-11T22:08:36.163Z,5.00
2018-03-11T22:11:03.793Z,5.00
2018-03-11T22:13:32.302Z,4.90
2018-03-11T22:15:59.902Z,4.90
2018-03-11T22:18:27.502Z,4.90
2018-03-11T22:20:55.073Z,5.00
2018-03-11T22:23:23.459Z,5.00
2018-03-11T22:25:51.837Z,5.00
2018-03-11T22:28:20.194Z,5.00
2018-03-11T22:30:48.107Z,5.00
2018-03-11T22:33:15.668Z,5.00
2018-03-11T22:35:43.239Z,5.00
2018-03-11T22:38:10.840Z,5.00
2018-03-11T22:40:38.446Z,5.00
2018-03-11T22:43:06.005Z,5.00
2018-03-11T22:45:33.686Z,5.00
2018-03-11T22:48:01.355Z,4.90
2018-03-11T22:50:28.974Z,4.90
2018-03-11T22:52:56.622Z,4.80
2018-03-11T22:55:25.016Z,4.70
2018-03-11T22:57:53.384Z,4.70
2018-03-11T23:00:21.993Z,4.70
2018-03-11T23:02:49.598Z,4.70
2018-03-11T23:05:17.188Z,4.60
2018-03-11T23:07:44.870Z,4.60
2018-03-11T23:10:12.466Z,4.70
2018-03-11T23:12:40.080Z,4.60
2018-03-11T23:15:10.028Z,4.60
2018-03-11T23:17:39.597Z,4.60
2018-03-11T23:20:08.908Z,4.50
2018-03-11T23:22:36.548Z,4.50
2018-03-11T23:25:04.133Z,4.50
2018-03-11T23:27:31.730Z,4.50
2018-03-11T23:29:59.353Z,4.40
2018-03-11T23:32:26.962Z,4.40
2018-03-11T23:34:54.574Z,4.40
2018-03-11T23:37:22.151Z,4.40
2018-03-11T23:39:49.766Z,4.40
2018-03-11T23:42:17.347Z,4.40
2018-03-11T23:44:44.916Z,4.40
2018-03-11T23:47:13.279Z,4.30
2018-03-11T23:49:40.851Z,4.30
2018-03-11T23:52:08.457Z,4.30
2018-03-11T23:54:36.025Z,4.30
2018-03-11T23:57:03.643Z,4.30
2018-03-11T23:59:31.230Z,4.30
